TimeCST,TemperatureF,Dew PointF,Humidity,Sea Level PressureIn,VisibilityMPH,Wind Direction,Wind SpeedMPH,Gust SpeedMPH,PrecipitationIn,Events,Conditions,WindDirDegrees,DateUTC
12:00 AM,68,41,26,29.70,,West,13.8,,,,,260,2013-05-13 06:00:00
12:00 AM,68.4,41.4,37,29.70,-9999.0,West,13.8,-,N/A,,Unknown,260,2013-05-13 06:00:00
1:00 AM,66.4,41.9,41,29.72,-9999.0,West,9.2,-,N/A,,Unknown,280,2013-05-13 07:00:00
2:00 AM,59.9,42.8,53,29.72,-9999.0,West,8.1,-,N/A,,Unknown,270,2013-05-13 08:00:00
3:00 AM,55,43,53,29.75,,NW,8.1,,,,,320,2013-05-13 09:00:00
3:00 AM,55.4,42.8,63,29.75,-9999.0,NW,8.1,-,N/A,,Unknown,320,2013-05-13 09:00:00
4:00 AM,55.8,41.5,59,29.77,-9999.0,NW,6.9,-,N/A,,Unknown,320,2013-05-13 10:00:00
5:00 AM,57.0,42.4,58,29.78,-9999.0,NW,10.4,-,N/A,,Unknown,310,2013-05-13 11:00:00
6:00 AM,50,42,65,29.80,,SW,8.1,,,,,230,2013-05-13 12:00:00
6:00 AM,49.8,41.7,74,29.80,-9999.0,SW,8.1,-,N/A,,Unknown,230,2013-05-13 12:00:00
7:00 AM,53.8,45.0,72,29.82,-9999.0,SSW,4.6,-,N/A,,Unknown,210,2013-05-13 13:00:00
8:00 AM,63.7,46.6,54,29.81,-9999.0,West,10.4,-,N/A,,Unknown,270,2013-05-13 14:00:00
9:00 AM,71,43,25,29.81,,WNW,11.5,,,,,290,2013-05-13 15:00:00
9:00 AM,70.7,42.8,36,29.81,-9999.0,WNW,11.5,-,N/A,,Unknown,290,2013-05-13 15:00:00
10:00 AM,73.0,41.2,32,29.81,-9999.0,NW,15.0,-,N/A,,Unknown,310,2013-05-13 16:00:00
11:00 AM,78.8,42.1,27,29.77,-9999.0,West,24.2,34.5,N/A,,Unknown,270,2013-05-13 17:00:00
12:00 PM,81,39,13,29.76,,West,24.2,,,,,270,2013-05-13 18:00:00
12:00 PM,81.1,39.0,22,29.76,-9999.0,West,24.2,35.7,N/A,,Unknown,270,2013-05-13 18:00:00
1:00 PM,83.3,36.7,19,29.74,-9999.0,West,28.8,40.3,N/A,,Unknown,280,2013-05-13 19:00:00
3:00 PM,86,38,10,29.71,,West,23.0,,,,,270,2013-05-13 21:00:00
3:00 PM,86.2,38.3,18,29.71,-9999.0,West,23.0,29.9,N/A,,Unknown,270,2013-05-13 21:00:00
4:00 PM,84.6,33.1,16,29.68,-9999.0,West,29.9,42.6,N/A,,Unknown,260,2013-05-13 22:00:00
6:00 PM,83,36,10,29.63,,West,21.9,,,,,280,2013-05-14 00:00:00
6:00 PM,83.5,36.5,19,29.63,-9999.0,West,21.9,28.8,N/A,,Unknown,280,2013-05-14 00:00:00
7:00 PM,82.0,37.8,21,29.59,-9999.0,WNW,15.0,-,N/A,,Unknown,290,2013-05-14 01:00:00
8:00 PM,71.6,38.3,30,29.56,-9999.0,WNW,6.9,-,N/A,,Unknown,300,2013-05-14 02:00:00
9:00 PM,64,44,36,29.55,,NNW,5.8,,,,,330,2013-05-14 03:00:00
9:00 PM,63.7,43.7,48,29.55,-9999.0,NNW,5.8,-,N/A,,Unknown,330,2013-05-14 03:00:00
10:00 PM,61.2,51.8,71,29.70,-9999.0,West,35.7,56.4,N/A,,Unknown,270,2013-05-14 04:00:00
11:00 PM,57.7,53.4,85,29.65,-9999.0,WSW,5.8,-,N/A,,Unknown,240,2013-05-14 05:00:00